sensor_id;sensor_type;location;lat;lon;timestamp;temperature;humidity
5647;DHT22;2845;48.626;9.362;2022-07-11T00:01:34;14.20;92.90
5647;DHT22;2845;48.626;9.362;2022-07-11T00:04:04;18.20;94.10
5647;DHT22;2845;48.626;9.362;2022-07-11T00:06:34;15.80;93.60
5647;DHT22;2845;48.626;9.362;2022-07-11T00:09:04;16.50;93.60
5647;DHT22;2845;48.626;9.362;2022-07-11T00:11:34;14.20;92.80
5647;DHT22;2845;48.626;9.362;2022-07-11T00:14:04;16.10;93.40
5647;DHT22;2845;48.626;9.362;2022-07-11T00:19:10;14.10;93.20
5647;DHT22;2845;48.626;9.362;2022-07-11T00:21:40;17.30;94.30
5647;DHT22;2845;48.626;9.362;2022-07-11T00:24:10;15.30;93.90
5647;DHT22;2845;48.626;9.362;2022-07-11T00:26:46;14.10;93.70
5647;DHT22;2845;48.626;9.362;2022-07-11T00:29:17;14.30;93.40
5647;DHT22;2845;48.626;9.362;2022-07-11T00:31:53;14.30;93.30
5647;DHT22;2845;48.626;9.362;2022-07-11T00:34:28;15.20;93.60
5647;DHT22;2845;48.626;9.362;2022-07-11T00:36:58;17.90;94.10
5647;DHT22;2845;48.626;9.362;2022-07-11T00:39:30;15.20;93.30
5647;DHT22;2845;48.626;9.362;2022-07-11T00:41:59;16.50;93.60
5647;DHT22;2845;48.626;9.362;2022-07-11T00:44:34;13.40;93.20
5647;DHT22;2845;48.626;9.362;2022-07-11T00:47:06;14.40;93.20
5647;DHT22;2845;48.626;9.362;2022-07-11T00:49:40;14.40;93.50
5647;DHT22;2845;48.626;9.362;2022-07-11T00:52:29;14.60;93.50
5647;DHT22;2845;48.626;9.362;2022-07-11T00:55:06;14.40;93.70
5647;DHT22;2845;48.626;9.362;2022-07-11T00:57:41;14.40;93.60
5647;DHT22;2845;48.626;9.362;2022-07-11T01:00:16;14.40;93.50
5647;DHT22;2845;48.626;9.362;2022-07-11T01:02:50;17.20;94.40
5647;DHT22;2845;48.626;9.362;2022-07-11T01:05:21;14.50;93.60
5647;DHT22;2845;48.626;9.362;2022-07-11T01:07:51;14.50;93.90
5647;DHT22;2845;48.626;9.362;2022-07-11T01:10:20;17.50;94.60
5647;DHT22;2845;48.626;9.362;2022-07-11T01:12:50;18.30;95.20
5647;DHT22;2845;48.626;9.362;2022-07-11T01:15:20;16.80;95.00
5647;DHT22;2845;48.626;9.362;2022-07-11T01:17:57;14.30;94.10
5647;DHT22;2845;48.626;9.362;2022-07-11T01:20:29;17.50;94.80
5647;DHT22;2845;48.626;9.362;2022-07-11T01:23:03;14.50;93.80
5647;DHT22;2845;48.626;9.362;2022-07-11T01:25:39;17.60;94.80
5647;DHT22;2845;48.626;9.362;2022-07-11T01:28:09;14.50;93.90
5647;DHT22;2845;48.626;9.362;2022-07-11T01:30:40;14.60;94.00
5647;DHT22;2845;48.626;9.362;2022-07-11T01:33:10;16.20;94.40
5647;DHT22;2845;48.626;9.362;2022-07-11T01:35:46;14.60;93.90
5647;DHT22;2845;48.626;9.362;2022-07-11T01:38:20;15.70;94.00
5647;DHT22;2845;48.626;9.362;2022-07-11T01:41:10;14.70;93.60
5647;DHT22;2845;48.626;9.362;2022-07-11T01:43:41;14.70;93.40
5647;DHT22;2845;48.626;9.362;2022-07-11T01:46:11;14.70;93.20
5647;DHT22;2845;48.626;9.362;2022-07-11T01:48:40;15.60;93.50
5647;DHT22;2845;48.626;9.362;2022-07-11T01:51:13;18.70;94.20
5647;DHT22;2845;48.626;9.362;2022-07-11T01:53:45;14.70;93.30
5647;DHT22;2845;48.626;9.362;2022-07-11T01:56:23;17.90;93.90
5647;DHT22;2845;48.626;9.362;2022-07-11T01:59:10;18.70;94.20
5647;DHT22;2845;48.626;9.362;2022-07-11T02:01:40;14.70;93.00
5647;DHT22;2845;48.626;9.362;2022-07-11T02:04:09;14.70;93.10
5647;DHT22;2845;48.626;9.362;2022-07-11T02:06:46;17.60;93.90
5647;DHT22;2845;48.626;9.362;2022-07-11T02:09:19;14.70;93.00
5647;DHT22;2845;48.626;9.362;2022-07-11T02:11:49;14.80;93.20
5647;DHT22;2845;48.626;9.362;2022-07-11T02:14:22;14.70;93.10
5647;DHT22;2845;48.626;9.362;2022-07-11T02:16:52;14.70;93.30
5647;DHT22;2845;48.626;9.362;2022-07-11T02:19:22;14.70;93.20
5647;DHT22;2845;48.626;9.362;2022-07-11T02:21:50;17.20;94.20
5647;DHT22;2845;48.626;9.362;2022-07-11T02:27:01;14.60;93.70
5647;DHT22;2845;48.626;9.362;2022-07-11T02:29:32;14.50;94.10
5647;DHT22;2845;48.626;9.362;2022-07-11T02:32:05;14.50;93.90
5647;DHT22;2845;48.626;9.362;2022-07-11T02:34:40;14.50;93.70
5647;DHT22;2845;48.626;9.362;2022-07-11T02:37:09;14.60;94.00
5647;DHT22;2845;48.626;9.362;2022-07-11T02:40:11;14.60;93.90
5647;DHT22;2845;48.626;9.362;2022-07-11T02:42:48;14.50;93.80
5647;DHT22;2845;48.626;9.362;2022-07-11T02:45:29;14.50;93.80
5647;DHT22;2845;48.626;9.362;2022-07-11T02:48:00;14.50;94.10
5647;DHT22;2845;48.626;9.362;2022-07-11T02:50:40;14.50;94.00
5647;DHT22;2845;48.626;9.362;2022-07-11T02:53:09;15.30;94.20
5647;DHT22;2845;48.626;9.362;2022-07-11T02:55:42;14.40;94.20
5647;DHT22;2845;48.626;9.362;2022-07-11T02:58:16;14.40;94.00
5647;DHT22;2845;48.626;9.362;2022-07-11T03:00:58;14.30;94.50
5647;DHT22;2845;48.626;9.362;2022-07-11T03:03:34;14.30;94.30
5647;DHT22;2845;48.626;9.362;2022-07-11T03:06:05;14.40;94.10
5647;DHT22;2845;48.626;9.362;2022-07-11T03:08:35;14.40;94.40
5647;DHT22;2845;48.626;9.362;2022-07-11T03:11:09;12.20;93.80
5647;DHT22;2845;48.626;9.362;2022-07-11T03:13:39;14.40;94.50
5647;DHT22;2845;48.626;9.362;2022-07-11T03:16:09;17.40;95.30
5647;DHT22;2845;48.626;9.362;2022-07-11T03:18:46;14.40;94.50
5647;DHT22;2845;48.626;9.362;2022-07-11T03:21:22;14.50;94.10
5647;DHT22;2845;48.626;9.362;2022-07-11T03:24:00;14.40;94.10
5647;DHT22;2845;48.626;9.362;2022-07-11T03:26:32;14.40;94.10
5647;DHT22;2845;48.626;9.362;2022-07-11T03:29:02;14.40;94.40
5647;DHT22;2845;48.626;9.362;2022-07-11T03:31:32;14.60;94.30
5647;DHT22;2845;48.626;9.362;2022-07-11T03:34:01;16.10;95.10
5647;DHT22;2845;48.626;9.362;2022-07-11T03:36:31;18.30;95.80
5647;DHT22;2845;48.626;9.362;2022-07-11T03:39:00;16.10;94.90
5647;DHT22;2845;48.626;9.362;2022-07-11T03:41:33;14.40;94.60
5647;DHT22;2845;48.626;9.362;2022-07-11T03:44:04;14.60;94.80
5647;DHT22;2845;48.626;9.362;2022-07-11T03:50:04;14.50;94.70
5647;DHT22;2845;48.626;9.362;2022-07-11T03:52:35;14.60;94.60
5647;DHT22;2845;48.626;9.362;2022-07-11T03:55:29;18.00;95.30
5647;DHT22;2845;48.626;9.362;2022-07-11T03:58:01;14.60;93.70
5647;DHT22;2845;48.626;9.362;2022-07-11T04:00:46;14.70;94.20
5647;DHT22;2845;48.626;9.362;2022-07-11T04:03:16;15.70;94.00
5647;DHT22;2845;48.626;9.362;2022-07-11T04:05:46;18.20;94.70
5647;DHT22;2845;48.626;9.362;2022-07-11T04:08:20;14.70;93.50
5647;DHT22;2845;48.626;9.362;2022-07-11T04:10:52;17.20;94.30
5647;DHT22;2845;48.626;9.362;2022-07-11T04:13:41;14.90;93.10
5647;DHT22;2845;48.626;9.362;2022-07-11T04:19:46;14.90;93.10
5647;DHT22;2845;48.626;9.362;2022-07-11T04:22:16;15.60;93.10
5647;DHT22;2845;48.626;9.362;2022-07-11T04:25:22;15.00;93.00
5647;DHT22;2845;48.626;9.362;2022-07-11T04:27:59;15.00;92.90
5647;DHT22;2845;48.626;9.362;2022-07-11T04:30:45;18.60;93.80
5647;DHT22;2845;48.626;9.362;2022-07-11T04:33:40;19.20;94.00
5647;DHT22;2845;48.626;9.362;2022-07-11T04:36:16;15.10;92.70
5647;DHT22;2845;48.626;9.362;2022-07-11T04:38:46;19.20;93.80
5647;DHT22;2845;48.626;9.362;2022-07-11T04:41:28;13.00;92.70
5647;DHT22;2845;48.626;9.362;2022-07-11T04:44:16;19.20;93.90
5647;DHT22;2845;48.626;9.362;2022-07-11T04:47:00;12.00;91.80
5647;DHT22;2845;48.626;9.362;2022-07-11T04:49:46;13.40;92.00
5647;DHT22;2845;48.626;9.362;2022-07-11T04:56:52;15.50;92.30
5647;DHT22;2845;48.626;9.362;2022-07-11T05:03:56;15.60;92.20
5647;DHT22;2845;48.626;9.362;2022-07-11T05:07:16;15.60;92.00
5647;DHT22;2845;48.626;9.362;2022-07-11T05:13:10;15.80;92.10
5647;DHT22;2845;48.626;9.362;2022-07-11T05:15:47;18.00;92.40
5647;DHT22;2845;48.626;9.362;2022-07-11T05:18:16;16.00;91.90
5647;DHT22;2845;48.626;9.362;2022-07-11T05:20:45;18.30;92.40
5647;DHT22;2845;48.626;9.362;2022-07-11T05:25:52;16.00;91.70
5647;DHT22;2845;48.626;9.362;2022-07-11T05:28:22;16.10;91.70
5647;DHT22;2845;48.626;9.362;2022-07-11T05:30:58;17.80;92.10
5647;DHT22;2845;48.626;9.362;2022-07-11T05:33:46;16.10;91.70
5647;DHT22;2845;48.626;9.362;2022-07-11T05:36:17;16.10;91.70
5647;DHT22;2845;48.626;9.362;2022-07-11T05:41:59;16.20;91.50
5647;DHT22;2845;48.626;9.362;2022-07-11T05:44:29;16.30;91.60
5647;DHT22;2845;48.626;9.362;2022-07-11T05:47:11;16.30;91.60
5647;DHT22;2845;48.626;9.362;2022-07-11T05:49:47;16.40;91.60
5647;DHT22;2845;48.626;9.362;2022-07-11T05:52:16;16.60;91.40
5647;DHT22;2845;48.626;9.362;2022-07-11T05:55:04;20.00;92.00
5647;DHT22;2845;48.626;9.362;2022-07-11T05:57:44;16.70;91.20
5647;DHT22;2845;48.626;9.362;2022-07-11T06:00:23;16.90;91.20
5647;DHT22;2845;48.626;9.362;2022-07-11T06:02:59;16.90;91.00
5647;DHT22;2845;48.626;9.362;2022-07-11T06:05:28;20.70;91.70
5647;DHT22;2845;48.626;9.362;2022-07-11T06:08:04;17.20;91.00
5647;DHT22;2845;48.626;9.362;2022-07-11T06:10:52;17.00;90.90
5647;DHT22;2845;48.626;9.362;2022-07-11T06:13:29;17.20;90.80
5647;DHT22;2845;48.626;9.362;2022-07-11T06:16:05;17.30;90.70
5647;DHT22;2845;48.626;9.362;2022-07-11T06:19:10;17.40;90.60
5647;DHT22;2845;48.626;9.362;2022-07-11T06:21:41;17.50;90.50
5647;DHT22;2845;48.626;9.362;2022-07-11T06:24:29;17.50;90.50
5647;DHT22;2845;48.626;9.362;2022-07-11T06:27:06;17.60;90.50
5647;DHT22;2845;48.626;9.362;2022-07-11T06:29:53;17.70;90.50
5647;DHT22;2845;48.626;9.362;2022-07-11T06:32:29;19.50;90.70
5647;DHT22;2845;48.626;9.362;2022-07-11T06:34:59;18.60;90.30
5647;DHT22;2845;48.626;9.362;2022-07-11T06:38:04;18.10;90.20
5647;DHT22;2845;48.626;9.362;2022-07-11T06:40:41;18.20;90.00
5647;DHT22;2845;48.626;9.362;2022-07-11T06:43:33;18.30;89.90
5647;DHT22;2845;48.626;9.362;2022-07-11T06:46:04;16.30;89.10
5647;DHT22;2845;48.626;9.362;2022-07-11T06:48:41;18.50;90.20
5647;DHT22;2845;48.626;9.362;2022-07-11T06:51:38;18.60;88.80
5647;DHT22;2845;48.626;9.362;2022-07-11T06:54:09;18.70;88.60
5647;DHT22;2845;48.626;9.362;2022-07-11T06:56:59;18.70;88.50
5647;DHT22;2845;48.626;9.362;2022-07-11T06:59:37;18.80;88.40
5647;DHT22;2845;48.626;9.362;2022-07-11T07:05:18;19.10;88.20
5647;DHT22;2845;48.626;9.362;2022-07-11T07:07:59;19.10;87.80
5647;DHT22;2845;48.626;9.362;2022-07-11T07:10:35;19.10;88.10
5647;DHT22;2845;48.626;9.362;2022-07-11T07:13:11;22.10;89.40
5647;DHT22;2845;48.626;9.362;2022-07-11T07:15:40;20.00;89.00
5647;DHT22;2845;48.626;9.362;2022-07-11T07:18:10;19.30;89.10
5647;DHT22;2845;48.626;9.362;2022-07-11T07:20:53;22.80;90.10
5647;DHT22;2845;48.626;9.362;2022-07-11T07:23:46;19.80;88.30
5647;DHT22;2845;48.626;9.362;2022-07-11T07:26:40;23.40;90.00
5647;DHT22;2845;48.626;9.362;2022-07-11T07:29:09;19.70;87.90
5647;DHT22;2845;48.626;9.362;2022-07-11T07:31:38;21.00;88.00
5647;DHT22;2845;48.626;9.362;2022-07-11T07:38:34;20.10;87.50
5647;DHT22;2845;48.626;9.362;2022-07-11T07:41:29;20.20;86.60
5647;DHT22;2845;48.626;9.362;2022-07-11T07:44:03;22.50;87.50
5647;DHT22;2845;48.626;9.362;2022-07-11T07:46:47;20.80;86.90
5647;DHT22;2845;48.626;9.362;2022-07-11T07:49:17;23.00;86.90
5647;DHT22;2845;48.626;9.362;2022-07-11T07:51:46;22.30;87.00
5647;DHT22;2845;48.626;9.362;2022-07-11T07:54:40;20.50;87.20
5647;DHT22;2845;48.626;9.362;2022-07-11T07:59:42;20.80;85.60
5647;DHT22;2845;48.626;9.362;2022-07-11T08:02:10;22.40;87.10
5647;DHT22;2845;48.626;9.362;2022-07-11T08:04:39;24.20;87.80
5647;DHT22;2845;48.626;9.362;2022-07-11T08:07:08;24.50;87.90
5647;DHT22;2845;48.626;9.362;2022-07-11T08:09:41;22.50;87.10
5647;DHT22;2845;48.626;9.362;2022-07-11T08:12:09;20.90;85.80
5647;DHT22;2845;48.626;9.362;2022-07-11T08:14:41;23.10;87.10
5647;DHT22;2845;48.626;9.362;2022-07-11T08:17:17;24.00;87.80
5647;DHT22;2845;48.626;9.362;2022-07-11T08:19:47;22.40;87.40
5647;DHT22;2845;48.626;9.362;2022-07-11T08:22:16;24.10;87.30
5647;DHT22;2845;48.626;9.362;2022-07-11T08:24:45;22.20;87.30
5647;DHT22;2845;48.626;9.362;2022-07-11T08:27:14;18.20;84.30
5647;DHT22;2845;48.626;9.362;2022-07-11T08:30:06;23.60;87.70
5647;DHT22;2845;48.626;9.362;2022-07-11T08:32:41;20.70;86.20
5647;DHT22;2845;48.626;9.362;2022-07-11T08:35:11;22.80;87.50
5647;DHT22;2845;48.626;9.362;2022-07-11T08:37:42;22.00;86.80
5647;DHT22;2845;48.626;9.362;2022-07-11T08:40:11;20.60;85.60
5647;DHT22;2845;48.626;9.362;2022-07-11T08:42:47;20.70;85.50
5647;DHT22;2845;48.626;9.362;2022-07-11T08:45:30;20.70;85.40
5647;DHT22;2845;48.626;9.362;2022-07-11T08:48:05;22.00;86.30
5647;DHT22;2845;48.626;9.362;2022-07-11T08:50:46;22.20;86.30
5647;DHT22;2845;48.626;9.362;2022-07-11T08:53:15;21.80;85.10
5647;DHT22;2845;48.626;9.362;2022-07-11T08:55:44;22.60;85.50
5647;DHT22;2845;48.626;9.362;2022-07-11T08:58:17;21.00;83.60
5647;DHT22;2845;48.626;9.362;2022-07-11T09:00:47;24.60;85.80
5647;DHT22;2845;48.626;9.362;2022-07-11T09:03:28;24.80;84.30
5647;DHT22;2845;48.626;9.362;2022-07-11T09:05:59;21.50;82.70
5647;DHT22;2845;48.626;9.362;2022-07-11T09:08:29;21.30;83.20
5647;DHT22;2845;48.626;9.362;2022-07-11T09:11:04;22.80;82.90
5647;DHT22;2845;48.626;9.362;2022-07-11T09:13:47;21.50;80.80
5647;DHT22;2845;48.626;9.362;2022-07-11T09:16:51;21.70;81.10
5647;DHT22;2845;48.626;9.362;2022-07-11T09:19:41;21.90;80.10
5647;DHT22;2845;48.626;9.362;2022-07-11T09:22:22;22.00;80.30
5647;DHT22;2845;48.626;9.362;2022-07-11T09:25:18;22.00;78.90
5647;DHT22;2845;48.626;9.362;2022-07-11T09:28:10;22.20;77.90
5647;DHT22;2845;48.626;9.362;2022-07-11T09:34:08;22.60;78.30
5647;DHT22;2845;48.626;9.362;2022-07-11T09:36:59;22.70;76.10
5647;DHT22;2845;48.626;9.362;2022-07-11T09:39:53;22.40;78.10
5647;DHT22;2845;48.626;9.362;2022-07-11T09:42:49;22.10;77.00
5647;DHT22;2845;48.626;9.362;2022-07-11T09:45:40;21.90;77.70
5647;DHT22;2845;48.626;9.362;2022-07-11T09:51:37;21.80;77.80
5647;DHT22;2845;48.626;9.362;2022-07-11T09:54:23;22.00;77.90
5647;DHT22;2845;48.626;9.362;2022-07-11T09:57:36;22.90;78.50
5647;DHT22;2845;48.626;9.362;2022-07-11T10:04:16;23.00;76.90
5647;DHT22;2845;48.626;9.362;2022-07-11T10:10:34;23.50;76.20
5647;DHT22;2845;48.626;9.362;2022-07-11T10:13:23;21.80;73.60
5647;DHT22;2845;48.626;9.362;2022-07-11T10:16:00;26.00;75.90
5647;DHT22;2845;48.626;9.362;2022-07-11T10:19:09;25.80;75.90
5647;DHT22;2845;48.626;9.362;2022-07-11T10:22:43;23.70;74.80
5647;DHT22;2845;48.626;9.362;2022-07-11T10:25:22;24.90;75.20
5647;DHT22;2845;48.626;9.362;2022-07-11T10:28:20;25.40;76.40
5647;DHT22;2845;48.626;9.362;2022-07-11T10:31:02;25.50;75.20
5647;DHT22;2845;48.626;9.362;2022-07-11T10:34:00;24.00;75.30
5647;DHT22;2845;48.626;9.362;2022-07-11T10:36:40;24.00;74.90
5647;DHT22;2845;48.626;9.362;2022-07-11T10:39:29;23.90;75.60
5647;DHT22;2845;48.626;9.362;2022-07-11T10:42:20;23.90;75.00
5647;DHT22;2845;48.626;9.362;2022-07-11T10:44:56;23.90;75.30
5647;DHT22;2845;48.626;9.362;2022-07-11T10:51:08;23.70;75.60
5647;DHT22;2845;48.626;9.362;2022-07-11T10:53:53;23.70;76.20
5647;DHT22;2845;48.626;9.362;2022-07-11T11:00:05;24.50;74.30
5647;DHT22;2845;48.626;9.362;2022-07-11T11:05:55;25.10;72.60
5647;DHT22;2845;48.626;9.362;2022-07-11T11:08:45;25.10;71.00
5647;DHT22;2845;48.626;9.362;2022-07-11T11:11:40;25.10;72.50
5647;DHT22;2845;48.626;9.362;2022-07-11T11:14:43;24.90;73.00
5647;DHT22;2845;48.626;9.362;2022-07-11T11:17:40;24.90;72.60
5647;DHT22;2845;48.626;9.362;2022-07-11T11:20:30;24.90;72.90
5647;DHT22;2845;48.626;9.362;2022-07-11T11:23:19;25.90;74.20
5647;DHT22;2845;48.626;9.362;2022-07-11T11:26:23;25.10;72.30
5647;DHT22;2845;48.626;9.362;2022-07-11T11:28:57;24.70;73.30
5647;DHT22;2845;48.626;9.362;2022-07-11T11:32:14;24.90;73.40
5647;DHT22;2845;48.626;9.362;2022-07-11T11:34:50;24.60;73.40
5647;DHT22;2845;48.626;9.362;2022-07-11T11:37:21;24.80;74.00
5647;DHT22;2845;48.626;9.362;2022-07-11T11:48:52;25.30;72.30
5647;DHT22;2845;48.626;9.362;2022-07-11T11:51:59;25.30;72.80
5647;DHT22;2845;48.626;9.362;2022-07-11T11:55:28;25.30;72.00
5647;DHT22;2845;48.626;9.362;2022-07-11T11:58:33;24.90;73.00
5647;DHT22;2845;48.626;9.362;2022-07-11T12:01:05;24.90;72.50
5647;DHT22;2845;48.626;9.362;2022-07-11T12:07:28;25.00;72.90
5647;DHT22;2845;48.626;9.362;2022-07-11T12:09:59;25.00;73.60
5647;DHT22;2845;48.626;9.362;2022-07-11T12:12:32;25.30;71.60
5647;DHT22;2845;48.626;9.362;2022-07-11T12:15:46;25.50;71.40
5647;DHT22;2845;48.626;9.362;2022-07-11T12:22:02;25.50;71.40
5647;DHT22;2845;48.626;9.362;2022-07-11T12:24:50;25.50;72.80
5647;DHT22;2845;48.626;9.362;2022-07-11T12:27:35;25.50;72.10
5647;DHT22;2845;48.626;9.362;2022-07-11T12:30:32;27.90;74.20
5647;DHT22;2845;48.626;9.362;2022-07-11T12:33:22;25.40;71.40
5647;DHT22;2845;48.626;9.362;2022-07-11T12:36:01;25.00;72.30
5647;DHT22;2845;48.626;9.362;2022-07-11T12:46:12;25.10;72.50
5647;DHT22;2845;48.626;9.362;2022-07-11T12:48:47;25.30;72.30
5647;DHT22;2845;48.626;9.362;2022-07-11T12:51:34;25.40;72.90
5647;DHT22;2845;48.626;9.362;2022-07-11T12:54:12;27.20;73.50
5647;DHT22;2845;48.626;9.362;2022-07-11T13:00:59;25.60;72.10
5647;DHT22;2845;48.626;9.362;2022-07-11T13:03:33;25.60;72.50
5647;DHT22;2845;48.626;9.362;2022-07-11T13:06:05;25.20;72.60
5647;DHT22;2845;48.626;9.362;2022-07-11T13:08:36;25.70;72.20
5647;DHT22;2845;48.626;9.362;2022-07-11T13:11:29;25.30;71.60
5647;DHT22;2845;48.626;9.362;2022-07-11T13:13:59;25.50;71.40
5647;DHT22;2845;48.626;9.362;2022-07-11T13:16:33;25.60;71.10
5647;DHT22;2845;48.626;9.362;2022-07-11T13:19:21;25.80;71.20
5647;DHT22;2845;48.626;9.362;2022-07-11T13:22:16;26.10;70.40
5647;DHT22;2845;48.626;9.362;2022-07-11T13:25:11;26.00;71.70
5647;DHT22;2845;48.626;9.362;2022-07-11T13:28:10;26.30;71.00
5647;DHT22;2845;48.626;9.362;2022-07-11T13:30:53;26.50;70.50
5647;DHT22;2845;48.626;9.362;2022-07-11T13:33:59;26.50;70.90
5647;DHT22;2845;48.626;9.362;2022-07-11T13:37:09;27.40;71.00
5647;DHT22;2845;48.626;9.362;2022-07-11T13:39:47;26.20;71.10
5647;DHT22;2845;48.626;9.362;2022-07-11T13:42:20;26.00;70.50
5647;DHT22;2845;48.626;9.362;2022-07-11T13:45:06;26.00;71.70
5647;DHT22;2845;48.626;9.362;2022-07-11T13:48:20;25.70;71.10
5647;DHT22;2845;48.626;9.362;2022-07-11T13:51:06;25.40;70.70
5647;DHT22;2845;48.626;9.362;2022-07-11T13:53:41;25.70;69.50
5647;DHT22;2845;48.626;9.362;2022-07-11T13:56:29;26.50;71.20
5647;DHT22;2845;48.626;9.362;2022-07-11T13:59:11;25.90;71.20
5647;DHT22;2845;48.626;9.362;2022-07-11T14:01:53;26.00;69.90
5647;DHT22;2845;48.626;9.362;2022-07-11T14:04:27;26.20;70.10
5647;DHT22;2845;48.626;9.362;2022-07-11T14:07:01;27.20;70.60
5647;DHT22;2845;48.626;9.362;2022-07-11T14:09:47;26.00;70.40
5647;DHT22;2845;48.626;9.362;2022-07-11T14:12:23;25.90;71.00
5647;DHT22;2845;48.626;9.362;2022-07-11T14:15:03;29.80;73.30
5647;DHT22;2845;48.626;9.362;2022-07-11T14:17:36;25.80;71.40
5647;DHT22;2845;48.626;9.362;2022-07-11T14:20:11;26.40;71.50
5647;DHT22;2845;48.626;9.362;2022-07-11T14:22:39;26.00;71.00
5647;DHT22;2845;48.626;9.362;2022-07-11T14:25:11;25.90;70.60
5647;DHT22;2845;48.626;9.362;2022-07-11T14:27:53;26.90;71.30
5647;DHT22;2845;48.626;9.362;2022-07-11T14:30:25;26.10;70.80
5647;DHT22;2845;48.626;9.362;2022-07-11T14:33:05;29.00;72.00
5647;DHT22;2845;48.626;9.362;2022-07-11T14:35:56;26.30;69.70
5647;DHT22;2845;48.626;9.362;2022-07-11T14:38:36;26.40;69.60
5647;DHT22;2845;48.626;9.362;2022-07-11T14:41:12;26.20;70.50
5647;DHT22;2845;48.626;9.362;2022-07-11T14:43:47;26.30;69.80
5647;DHT22;2845;48.626;9.362;2022-07-11T14:46:20;26.40;69.40
5647;DHT22;2845;48.626;9.362;2022-07-11T14:49:05;26.40;69.90
5647;DHT22;2845;48.626;9.362;2022-07-11T14:52:07;26.30;70.20
5647;DHT22;2845;48.626;9.362;2022-07-11T14:54:59;25.80;70.70
5647;DHT22;2845;48.626;9.362;2022-07-11T15:01:04;25.60;71.00
5647;DHT22;2845;48.626;9.362;2022-07-11T15:03:34;25.30;71.90
5647;DHT22;2845;48.626;9.362;2022-07-11T15:06:23;25.10;72.20
5647;DHT22;2845;48.626;9.362;2022-07-11T15:09:49;25.20;71.50
5647;DHT22;2845;48.626;9.362;2022-07-11T15:12:36;25.10;72.40
5647;DHT22;2845;48.626;9.362;2022-07-11T15:15:23;25.10;72.30
5647;DHT22;2845;48.626;9.362;2022-07-11T15:18:05;25.30;72.50
5647;DHT22;2845;48.626;9.362;2022-07-11T15:20:47;26.20;72.60
5647;DHT22;2845;48.626;9.362;2022-07-11T15:23:17;25.20;71.90
5647;DHT22;2845;48.626;9.362;2022-07-11T15:26:30;25.40;72.10
5647;DHT22;2845;48.626;9.362;2022-07-11T15:29:00;25.30;72.10
5647;DHT22;2845;48.626;9.362;2022-07-11T15:31:40;27.70;73.40
5647;DHT22;2845;48.626;9.362;2022-07-11T15:34:17;25.20;72.00
5647;DHT22;2845;48.626;9.362;2022-07-11T15:36:59;25.30;71.90
5647;DHT22;2845;48.626;9.362;2022-07-11T15:39:30;25.40;72.00
5647;DHT22;2845;48.626;9.362;2022-07-11T15:42:13;29.10;73.30
5647;DHT22;2845;48.626;9.362;2022-07-11T15:44:41;27.80;73.10
5647;DHT22;2845;48.626;9.362;2022-07-11T15:47:23;26.20;72.50
5647;DHT22;2845;48.626;9.362;2022-07-11T15:49:54;26.40;72.50
5647;DHT22;2845;48.626;9.362;2022-07-11T15:52:35;29.10;74.30
5647;DHT22;2845;48.626;9.362;2022-07-11T15:55:17;25.40;71.20
5647;DHT22;2845;48.626;9.362;2022-07-11T15:57:49;25.60;70.60
5647;DHT22;2845;48.626;9.362;2022-07-11T16:00:23;25.20;72.10
5647;DHT22;2845;48.626;9.362;2022-07-11T16:03:05;27.10;72.90
5647;DHT22;2845;48.626;9.362;2022-07-11T16:05:34;25.10;71.50
5647;DHT22;2845;48.626;9.362;2022-07-11T16:08:04;25.10;72.10
5647;DHT22;2845;48.626;9.362;2022-07-11T16:10:34;25.20;71.70
5647;DHT22;2845;48.626;9.362;2022-07-11T16:13:22;24.90;72.70
5647;DHT22;2845;48.626;9.362;2022-07-11T16:15:51;26.50;72.60
5647;DHT22;2845;48.626;9.362;2022-07-11T16:18:20;28.50;75.50
5647;DHT22;2845;48.626;9.362;2022-07-11T16:20:49;27.30;75.40
5647;DHT22;2845;48.626;9.362;2022-07-11T16:23:23;27.20;75.00
5647;DHT22;2845;48.626;9.362;2022-07-11T16:29:06;24.20;73.20
5647;DHT22;2845;48.626;9.362;2022-07-11T16:31:35;24.20;73.10
5647;DHT22;2845;48.626;9.362;2022-07-11T16:34:05;25.70;73.60
5647;DHT22;2845;48.626;9.362;2022-07-11T16:39:51;23.90;73.70
5647;DHT22;2845;48.626;9.362;2022-07-11T16:42:41;27.70;75.80
5647;DHT22;2845;48.626;9.362;2022-07-11T16:45:29;24.60;74.70
5647;DHT22;2845;48.626;9.362;2022-07-11T16:47:59;24.00;74.80
5647;DHT22;2845;48.626;9.362;2022-07-11T16:50:28;26.00;75.20
5647;DHT22;2845;48.626;9.362;2022-07-11T16:53:11;26.80;75.90
5647;DHT22;2845;48.626;9.362;2022-07-11T16:55:47;23.70;72.80
5647;DHT22;2845;48.626;9.362;2022-07-11T16:58:18;23.70;73.70
5647;DHT22;2845;48.626;9.362;2022-07-11T17:00:51;27.00;76.20
5647;DHT22;2845;48.626;9.362;2022-07-11T17:03:23;23.50;73.70
5647;DHT22;2845;48.626;9.362;2022-07-11T17:06:21;23.70;74.40
5647;DHT22;2845;48.626;9.362;2022-07-11T17:08:51;23.60;74.30
5647;DHT22;2845;48.626;9.362;2022-07-11T17:11:35;23.50;73.90
5647;DHT22;2845;48.626;9.362;2022-07-11T17:14:08;23.30;75.70
5647;DHT22;2845;48.626;9.362;2022-07-11T17:16:41;27.20;79.20
5647;DHT22;2845;48.626;9.362;2022-07-11T17:19:29;23.40;77.00
5647;DHT22;2845;48.626;9.362;2022-07-11T17:22:27;22.80;76.80
5647;DHT22;2845;48.626;9.362;2022-07-11T17:24:57;25.70;78.60
5647;DHT22;2845;48.626;9.362;2022-07-11T17:27:47;24.30;77.00
5647;DHT22;2845;48.626;9.362;2022-07-11T17:30:49;24.90;76.10
5647;DHT22;2845;48.626;9.362;2022-07-11T17:33:35;23.10;74.90
5647;DHT22;2845;48.626;9.362;2022-07-11T17:36:17;23.10;74.10
5647;DHT22;2845;48.626;9.362;2022-07-11T17:39:02;23.80;75.40
5647;DHT22;2845;48.626;9.362;2022-07-11T17:42:05;23.10;74.10
5647;DHT22;2845;48.626;9.362;2022-07-11T17:44:55;23.00;75.40
5647;DHT22;2845;48.626;9.362;2022-07-11T17:47:38;22.90;75.90
5647;DHT22;2845;48.626;9.362;2022-07-11T17:50:10;24.30;76.90
5647;DHT22;2845;48.626;9.362;2022-07-11T17:52:44;22.60;76.80
5647;DHT22;2845;48.626;9.362;2022-07-11T17:55:18;23.90;77.60
5647;DHT22;2845;48.626;9.362;2022-07-11T17:57:48;26.50;80.10
5647;DHT22;2845;48.626;9.362;2022-07-11T18:00:47;22.50;76.30
5647;DHT22;2845;48.626;9.362;2022-07-11T18:03:35;22.60;77.30
5647;DHT22;2845;48.626;9.362;2022-07-11T18:06:17;22.60;76.80
5647;DHT22;2845;48.626;9.362;2022-07-11T18:08:53;23.10;77.20
5647;DHT22;2845;48.626;9.362;2022-07-11T18:11:31;22.70;76.90
5647;DHT22;2845;48.626;9.362;2022-07-11T18:18:10;22.70;76.00
5647;DHT22;2845;48.626;9.362;2022-07-11T18:20:41;25.60;76.80
5647;DHT22;2845;48.626;9.362;2022-07-11T18:23:29;23.30;75.30
5647;DHT22;2845;48.626;9.362;2022-07-11T18:26:17;22.80;75.80
5647;DHT22;2845;48.626;9.362;2022-07-11T18:28:53;23.40;76.10
5647;DHT22;2845;48.626;9.362;2022-07-11T18:31:43;22.70;75.70
5647;DHT22;2845;48.626;9.362;2022-07-11T18:34:35;25.30;77.90
5647;DHT22;2845;48.626;9.362;2022-07-11T18:37:06;24.40;79.50
5647;DHT22;2845;48.626;9.362;2022-07-11T18:39:59;22.40;78.90
5647;DHT22;2845;48.626;9.362;2022-07-11T18:42:45;22.30;79.10
5647;DHT22;2845;48.626;9.362;2022-07-11T18:45:15;22.00;80.20
5647;DHT22;2845;48.626;9.362;2022-07-11T18:47:49;21.70;80.50
5647;DHT22;2845;48.626;9.362;2022-07-11T18:50:28;25.80;84.60
5647;DHT22;2845;48.626;9.362;2022-07-11T18:53:18;24.80;84.70
5647;DHT22;2845;48.626;9.362;2022-07-11T18:55:59;21.40;83.00
5647;DHT22;2845;48.626;9.362;2022-07-11T18:58:43;17.60;81.40
5647;DHT22;2845;48.626;9.362;2022-07-11T19:01:15;23.80;85.10
5647;DHT22;2845;48.626;9.362;2022-07-11T19:03:47;20.80;83.20
5647;DHT22;2845;48.626;9.362;2022-07-11T19:06:17;23.90;86.50
5647;DHT22;2845;48.626;9.362;2022-07-11T19:08:46;20.70;83.60